createdAt,value
2018-06-20T08:06:27.680Z,32256.00
2018-06-20T08:27:26.172Z,39616.00
2018-06-20T08:46:07.444Z,40864.00
2018-06-20T08:47:01.359Z,40480.00
2018-06-20T09:17:12.321Z,16288.00
2018-06-20T09:18:18.735Z,12704.00
2018-06-20T09:19:03.810Z,13940.00
2018-06-20T09:20:08.906Z,48224.00
2018-06-20T09:21:18.977Z,12580.00
2018-06-20T09:24:00.564Z,11276.00
2018-06-20T09:24:29.231Z,12032.00
2018-06-20T09:25:31.573Z,15744.00
2018-06-20T09:27:01.677Z,11932.00
2018-06-20T09:30:52.221Z,12324.00
2018-06-20T09:31:37.976Z,26784.00
2018-06-20T09:32:54.990Z,48384.00
2018-06-20T09:33:58.526Z,51360.00
2018-06-20T09:34:56.036Z,51904.00
2018-06-20T09:36:00.541Z,37632.00
2018-06-20T09:36:47.748Z,50880.00
2018-06-20T09:38:03.012Z,31648.00
2018-06-20T09:48:48.165Z,20288.00
2018-06-20T09:54:30.986Z,15168.00
2018-06-20T10:12:25.387Z,51520.00
2018-06-20T10:12:40.427Z,45120.00
2018-06-20T10:15:34.852Z,50112.00
2018-06-20T10:16:43.055Z,43520.00
2018-06-20T10:17:10.146Z,30816.00
2018-06-20T10:18:35.647Z,9852.00
2018-06-20T10:19:21.728Z,9964.00
2018-06-20T10:25:29.697Z,50016.00
2018-06-20T10:27:37.502Z,9848.00
2018-06-20T10:30:12.826Z,8476.00
2018-06-20T10:32:00.313Z,48896.00
2018-06-20T10:32:58.556Z,44416.00
2018-06-20T10:35:51.720Z,37376.00
2018-06-20T10:42:56.300Z,9708.00
2018-06-20T10:50:27.217Z,11264.00
2018-06-20T10:51:21.274Z,15168.00
2018-06-20T10:52:26.805Z,17216.00
2018-06-20T10:54:18.977Z,21792.00
2018-06-20T10:55:39.283Z,10196.00
2018-06-20T10:56:47.382Z,11016.00
2018-06-20T10:57:26.374Z,13740.00
2018-06-20T11:06:27.170Z,8396.00
2018-06-20T11:07:47.564Z,8668.00
2018-06-20T11:08:34.010Z,8924.00
2018-06-20T11:09:22.382Z,9156.00
2018-06-20T11:13:50.250Z,6308.00
2018-06-20T11:14:30.840Z,6508.00
2018-06-20T11:16:03.292Z,6812.00
2018-06-20T11:16:31.954Z,6192.00
2018-06-20T11:17:38.775Z,7168.00
2018-06-20T11:18:58.779Z,7056.00
2018-06-20T11:19:26.340Z,6948.00
2018-06-20T11:20:28.806Z,6964.00
2018-06-20T11:21:39.246Z,6900.00
2018-06-20T11:24:24.204Z,7172.00
2018-06-20T11:26:35.937Z,6992.00
2018-06-20T11:28:09.078Z,7004.00
2018-06-20T11:28:57.572Z,6948.00
2018-06-20T11:30:01.946Z,6704.00
2018-06-20T11:30:39.572Z,6580.00
2018-06-20T11:31:54.790Z,6612.00
2018-06-20T11:32:42.512Z,6684.00
2018-06-20T11:33:33.496Z,6652.00
2018-06-20T11:34:36.551Z,6792.00
2018-06-20T11:35:34.916Z,6976.00
2018-06-20T11:36:51.028Z,5692.00
2018-06-20T11:37:58.416Z,5416.00
2018-06-20T11:39:00.515Z,6016.00
2018-06-20T11:39:38.579Z,6000.00
2018-06-20T11:40:57.047Z,5952.00
2018-06-20T11:41:34.174Z,5936.00
2018-06-20T11:42:40.121Z,5964.00
2018-06-20T11:43:36.120Z,6100.00
2018-06-20T11:44:35.219Z,6276.00
2018-06-20T11:45:38.573Z,6452.00
2018-06-20T11:46:51.530Z,6520.00
2018-06-20T11:47:48.077Z,6568.00
2018-06-20T11:48:37.399Z,6944.00
2018-06-20T11:49:56.718Z,7156.00
2018-06-20T11:50:43.030Z,7128.00
2018-06-20T11:51:51.570Z,6532.00
2018-06-20T11:52:39.027Z,6604.00
2018-06-20T11:53:39.172Z,5872.00
2018-06-20T11:54:42.562Z,6556.00
2018-06-20T11:55:58.865Z,6240.00
2018-06-20T11:56:38.550Z,6072.00
2018-06-20T11:58:00.067Z,5968.00
2018-06-20T11:58:42.036Z,5948.00
2018-06-20T11:59:39.829Z,5956.00
2018-06-20T12:00:40.556Z,5892.00
2018-06-20T12:01:41.531Z,5844.00
2018-06-20T12:02:40.121Z,5820.00
2018-06-20T12:03:42.074Z,5916.00
2018-06-20T12:04:40.115Z,5908.00
2018-06-20T12:05:38.751Z,5952.00
2018-06-20T12:06:41.618Z,5856.00
2018-06-20T12:07:44.579Z,5808.00
2018-06-20T12:08:43.272Z,5772.00
2018-06-20T12:09:46.072Z,5680.00
2018-06-20T12:10:52.018Z,5612.00
2018-06-20T12:11:45.624Z,5584.00
2018-06-20T12:12:55.627Z,5584.00
2018-06-20T12:13:42.348Z,5588.00
2018-06-20T12:16:24.334Z,5472.00
2018-06-20T12:17:38.111Z,5404.00
2018-06-20T12:18:15.223Z,5416.00
2018-06-20T12:19:15.824Z,5436.00
2018-06-20T12:20:13.318Z,5376.00
2018-06-20T12:21:15.265Z,5160.00
2018-06-20T12:22:15.361Z,5040.00
2018-06-20T12:23:17.302Z,5228.00
2018-06-20T12:24:35.165Z,5216.00
2018-06-20T12:25:32.333Z,5092.00
2018-06-20T12:26:42.995Z,4992.00
2018-06-20T12:27:15.812Z,4908.00
2018-06-20T12:28:16.810Z,4812.00
2018-06-20T12:29:30.806Z,4760.00
2018-06-20T12:30:23.761Z,4748.00
2018-06-20T12:31:18.285Z,4712.00
2018-06-20T12:32:40.803Z,4724.00
2018-06-20T12:33:19.745Z,4752.00
2018-06-20T12:34:18.292Z,4620.00
2018-06-20T12:35:19.261Z,4564.00
2018-06-20T12:36:16.627Z,4656.00
2018-06-20T12:37:24.812Z,4548.00
2018-06-20T12:38:20.796Z,4492.00
2018-06-20T12:39:44.240Z,4448.00
2018-06-20T12:40:20.286Z,4472.00
2018-06-20T12:41:33.293Z,4456.00
2018-06-20T12:42:17.898Z,4384.00
2018-06-20T12:43:19.132Z,4396.00
2018-06-20T12:44:24.376Z,4324.00
2018-06-20T12:45:25.236Z,4284.00
2018-06-20T12:46:30.831Z,4244.00
2018-06-20T12:47:35.738Z,4200.00
2018-06-20T12:48:22.287Z,4136.00
2018-06-20T12:49:23.340Z,4028.00
2018-06-20T12:50:23.334Z,3996.00
2018-06-20T12:56:08.827Z,3632.00
2018-06-20T12:57:42.639Z,3580.00
2018-06-20T12:58:09.182Z,3536.00
2018-06-20T12:59:19.624Z,3500.00
2018-06-20T13:00:42.268Z,3504.00
2018-06-20T13:01:30.398Z,3500.00
2018-06-20T13:02:28.767Z,3488.00
2018-06-20T13:03:07.692Z,3464.00
2018-06-20T13:09:15.570Z,3420.00
2018-06-20T13:09:53.114Z,3356.00
2018-06-20T13:12:35.175Z,3288.00
2018-06-20T13:13:42.574Z,3248.00
2018-06-20T13:16:30.860Z,3260.00
2018-06-20T13:17:31.731Z,3224.00
2018-06-20T13:18:08.176Z,3208.00
2018-06-20T13:19:43.018Z,3176.00
2018-06-20T13:20:10.713Z,3216.00
2018-06-20T13:21:07.725Z,3232.00
2018-06-20T13:22:15.903Z,3176.00
2018-06-20T13:23:26.931Z,3040.00
2018-06-20T13:24:19.043Z,2876.00
2018-06-20T13:25:05.427Z,2816.00
2018-06-20T13:26:06.418Z,2796.00
2018-06-20T13:27:08.905Z,2784.00
2018-06-20T13:28:12.911Z,2784.00
2018-06-20T13:29:08.451Z,2780.00
2018-06-20T13:30:28.471Z,2776.00
2018-06-20T13:31:20.446Z,2764.00
2018-06-20T13:32:06.957Z,2732.00
2018-06-20T13:33:06.397Z,2704.00
2018-06-20T13:34:10.907Z,2700.00
2018-06-20T13:35:09.523Z,2680.00
2018-06-20T13:36:09.418Z,2640.00
2018-06-20T13:37:28.951Z,2604.00
2018-06-20T13:38:12.905Z,2580.00
2018-06-20T13:39:28.473Z,2564.00
2018-06-20T13:40:10.466Z,2568.00
2018-06-20T13:41:33.517Z,2564.00
2018-06-20T13:42:09.413Z,2548.00
2018-06-20T13:43:09.521Z,2540.00
2018-06-20T13:44:32.569Z,2540.00
2018-06-20T13:47:22.805Z,2496.00
2018-06-20T13:48:18.419Z,2524.00
2018-06-20T13:48:43.275Z,2524.00
2018-06-20T13:51:46.522Z,2560.00
2018-06-20T13:54:04.701Z,2488.00
2018-06-20T13:58:11.471Z,2428.00
2018-06-20T13:59:13.904Z,2404.00
2018-06-20T13:59:51.516Z,2376.00
2018-06-20T14:01:14.401Z,2380.00
2018-06-20T14:01:51.963Z,2444.00
2018-06-20T14:02:52.314Z,2468.00
2018-06-20T14:03:53.181Z,2536.00
2018-06-20T14:04:55.236Z,2568.00
2018-06-20T14:06:06.917Z,2536.00
2018-06-20T14:06:52.942Z,2432.00
2018-06-20T14:09:42.797Z,2248.00
2018-06-20T14:30:58.804Z,1968.00
2018-06-20T14:44:28.008Z,1884.00
2018-06-20T14:45:39.078Z,1900.00
2018-06-20T16:08:58.220Z,1372.00
2018-06-20T16:09:39.134Z,1364.00
2018-06-20T16:10:17.402Z,1360.00
2018-06-20T16:13:12.909Z,1348.00
2018-06-20T16:17:20.400Z,1340.00
2018-06-20T16:17:56.669Z,1336.00
2018-06-20T16:22:22.932Z,1316.00
2018-06-20T16:34:16.487Z,1272.00
2018-06-20T16:35:43.922Z,1272.00
2018-06-20T16:36:55.562Z,1264.00
2018-06-20T16:37:45.017Z,1264.00
2018-06-20T16:38:45.926Z,1260.00
2018-06-20T16:39:40.647Z,1260.00
2018-06-20T16:41:16.387Z,1252.00
2018-06-20T16:45:04.157Z,1244.00
2018-06-20T18:43:57.189Z,676.00
2018-06-20T19:26:02.298Z,200.00
2018-06-20T19:31:02.392Z,152.00
2018-06-20T19:41:44.397Z,68.00
2018-06-20T19:42:12.116Z,64.00
2018-06-20T19:43:14.674Z,60.00
2018-06-20T19:44:14.168Z,52.00
